sensor_id;sensor_type;location;lat;lon;timestamp;temperature;humidity
1988;DHT22;12775;46.994;15.498;2023-05-20T00:00:41;17.70;98.60
1988;DHT22;12775;46.994;15.498;2023-05-20T00:03:08;17.70;98.90
1988;DHT22;12775;46.994;15.498;2023-05-20T00:05:35;17.70;98.30
1988;DHT22;12775;46.994;15.498;2023-05-20T00:08:03;17.70;98.30
1988;DHT22;12775;46.994;15.498;2023-05-20T00:10:30;17.70;98.70
1988;DHT22;12775;46.994;15.498;2023-05-20T00:12:57;17.80;98.60
1988;DHT22;12775;46.994;15.498;2023-05-20T00:15:25;17.80;98.50
1988;DHT22;12775;46.994;15.498;2023-05-20T00:17:53;17.70;98.80
1988;DHT22;12775;46.994;15.498;2023-05-20T00:20:19;17.70;98.80
1988;DHT22;12775;46.994;15.498;2023-05-20T00:22:47;17.60;99.40
1988;DHT22;12775;46.994;15.498;2023-05-20T00:25:14;17.50;99.60
1988;DHT22;12775;46.994;15.498;2023-05-20T00:27:42;17.50;99.40
1988;DHT22;12775;46.994;15.498;2023-05-20T00:30:09;17.40;99.90
1988;DHT22;12775;46.994;15.498;2023-05-20T00:32:36;17.40;99.90
1988;DHT22;12775;46.994;15.498;2023-05-20T00:35:04;17.40;99.90
1988;DHT22;12775;46.994;15.498;2023-05-20T00:37:32;17.30;99.90
1988;DHT22;12775;46.994;15.498;2023-05-20T00:39:59;17.30;99.90
1988;DHT22;12775;46.994;15.498;2023-05-20T00:42:27;17.20;99.90
1988;DHT22;12775;46.994;15.498;2023-05-20T00:44:54;17.20;99.90
1988;DHT22;12775;46.994;15.498;2023-05-20T00:47:24;17.10;99.90
1988;DHT22;12775;46.994;15.498;2023-05-20T00:49:49;17.10;99.90
1988;DHT22;12775;46.994;15.498;2023-05-20T00:52:16;17.20;99.90
1988;DHT22;12775;46.994;15.498;2023-05-20T00:54:43;17.20;99.90
1988;DHT22;12775;46.994;15.498;2023-05-20T00:57:10;17.20;99.90
1988;DHT22;12775;46.994;15.498;2023-05-20T00:59:39;17.20;99.90
1988;DHT22;12775;46.994;15.498;2023-05-20T01:02:07;17.20;99.90
1988;DHT22;12775;46.994;15.498;2023-05-20T01:04:34;17.20;99.90
1988;DHT22;12775;46.994;15.498;2023-05-20T01:07:02;17.30;99.90
1988;DHT22;12775;46.994;15.498;2023-05-20T01:09:29;17.10;99.90
1988;DHT22;12775;46.994;15.498;2023-05-20T01:12:01;17.10;99.90
1988;DHT22;12775;46.994;15.498;2023-05-20T01:14:26;16.90;99.90
1988;DHT22;12775;46.994;15.498;2023-05-20T01:16:53;16.70;99.90
1988;DHT22;12775;46.994;15.498;2023-05-20T01:19:40;16.70;99.90
1988;DHT22;12775;46.994;15.498;2023-05-20T01:22:07;16.70;99.90
1988;DHT22;12775;46.994;15.498;2023-05-20T01:24:36;16.80;99.90
1988;DHT22;12775;46.994;15.498;2023-05-20T01:27:02;16.80;99.90
1988;DHT22;12775;46.994;15.498;2023-05-20T01:29:30;16.80;99.90
1988;DHT22;12775;46.994;15.498;2023-05-20T01:31:57;16.90;99.90
1988;DHT22;12775;46.994;15.498;2023-05-20T01:34:25;16.90;99.90
1988;DHT22;12775;46.994;15.498;2023-05-20T01:36:52;16.90;99.90
1988;DHT22;12775;46.994;15.498;2023-05-20T01:39:20;17.00;99.90
1988;DHT22;12775;46.994;15.498;2023-05-20T01:41:47;17.00;99.90
1988;DHT22;12775;46.994;15.498;2023-05-20T01:44:17;17.00;99.90
1988;DHT22;12775;46.994;15.498;2023-05-20T01:46:48;17.10;99.90
1988;DHT22;12775;46.994;15.498;2023-05-20T01:49:15;17.20;99.90
1988;DHT22;12775;46.994;15.498;2023-05-20T01:51:42;17.20;99.90
1988;DHT22;12775;46.994;15.498;2023-05-20T01:54:10;17.20;99.90
1988;DHT22;12775;46.994;15.498;2023-05-20T01:56:37;17.10;99.90
1988;DHT22;12775;46.994;15.498;2023-05-20T01:59:04;17.10;99.90
1988;DHT22;12775;46.994;15.498;2023-05-20T02:01:32;17.10;99.90
1988;DHT22;12775;46.994;15.498;2023-05-20T02:03:59;17.00;99.90
1988;DHT22;12775;46.994;15.498;2023-05-20T02:06:27;17.00;99.90
1988;DHT22;12775;46.994;15.498;2023-05-20T02:08:54;17.00;99.90
1988;DHT22;12775;46.994;15.498;2023-05-20T02:11:21;17.00;99.90
1988;DHT22;12775;46.994;15.498;2023-05-20T02:13:49;16.90;99.90
1988;DHT22;12775;46.994;15.498;2023-05-20T02:16:17;16.90;99.90
1988;DHT22;12775;46.994;15.498;2023-05-20T02:18:44;16.90;99.90
1988;DHT22;12775;46.994;15.498;2023-05-20T02:21:11;16.90;99.90
1988;DHT22;12775;46.994;15.498;2023-05-20T02:23:39;16.90;99.90
1988;DHT22;12775;46.994;15.498;2023-05-20T02:26:06;17.00;99.90
1988;DHT22;12775;46.994;15.498;2023-05-20T02:28:33;16.90;99.90
1988;DHT22;12775;46.994;15.498;2023-05-20T02:31:00;16.90;99.90
1988;DHT22;12775;46.994;15.498;2023-05-20T02:33:27;16.90;99.90
1988;DHT22;12775;46.994;15.498;2023-05-20T02:35:55;16.90;99.90
1988;DHT22;12775;46.994;15.498;2023-05-20T02:38:22;16.90;99.90
1988;DHT22;12775;46.994;15.498;2023-05-20T02:40:49;17.00;99.90
1988;DHT22;12775;46.994;15.498;2023-05-20T02:43:17;17.00;99.90
1988;DHT22;12775;46.994;15.498;2023-05-20T02:45:44;17.00;99.90
1988;DHT22;12775;46.994;15.498;2023-05-20T02:48:11;17.00;99.90
1988;DHT22;12775;46.994;15.498;2023-05-20T02:50:38;16.90;99.90
1988;DHT22;12775;46.994;15.498;2023-05-20T02:53:06;16.90;99.90
1988;DHT22;12775;46.994;15.498;2023-05-20T02:55:33;16.90;99.90
1988;DHT22;12775;46.994;15.498;2023-05-20T02:58:00;16.90;99.90
1988;DHT22;12775;46.994;15.498;2023-05-20T03:00:28;16.90;99.90
1988;DHT22;12775;46.994;15.498;2023-05-20T03:02:55;17.00;99.90
1988;DHT22;12775;46.994;15.498;2023-05-20T03:05:22;17.00;99.90
1988;DHT22;12775;46.994;15.498;2023-05-20T03:07:50;17.00;99.90
1988;DHT22;12775;46.994;15.498;2023-05-20T03:10:17;17.00;99.90
1988;DHT22;12775;46.994;15.498;2023-05-20T03:12:44;17.00;99.90
1988;DHT22;12775;46.994;15.498;2023-05-20T03:15:12;17.00;99.90
1988;DHT22;12775;46.994;15.498;2023-05-20T03:17:38;17.00;99.90
1988;DHT22;12775;46.994;15.498;2023-05-20T03:20:06;17.00;99.90
1988;DHT22;12775;46.994;15.498;2023-05-20T03:22:34;17.10;99.90
1988;DHT22;12775;46.994;15.498;2023-05-20T03:25:01;17.20;99.90
1988;DHT22;12775;46.994;15.498;2023-05-20T03:27:29;17.20;99.90
1988;DHT22;12775;46.994;15.498;2023-05-20T03:29:56;17.20;99.90
1988;DHT22;12775;46.994;15.498;2023-05-20T03:32:23;17.20;99.90
1988;DHT22;12775;46.994;15.498;2023-05-20T03:34:51;17.20;99.90
1988;DHT22;12775;46.994;15.498;2023-05-20T03:37:18;17.20;99.90
1988;DHT22;12775;46.994;15.498;2023-05-20T03:39:45;17.20;99.90
1988;DHT22;12775;46.994;15.498;2023-05-20T03:42:13;17.10;99.90
1988;DHT22;12775;46.994;15.498;2023-05-20T03:44:40;17.10;99.90
1988;DHT22;12775;46.994;15.498;2023-05-20T03:47:07;17.10;99.90
1988;DHT22;12775;46.994;15.498;2023-05-20T03:49:35;17.10;99.90
1988;DHT22;12775;46.994;15.498;2023-05-20T03:52:02;17.00;99.90
1988;DHT22;12775;46.994;15.498;2023-05-20T03:54:29;17.00;99.90
1988;DHT22;12775;46.994;15.498;2023-05-20T03:56:57;16.90;99.90
1988;DHT22;12775;46.994;15.498;2023-05-20T03:59:24;17.00;99.90
1988;DHT22;12775;46.994;15.498;2023-05-20T04:01:52;16.90;99.90
1988;DHT22;12775;46.994;15.498;2023-05-20T04:04:21;16.90;99.90
1988;DHT22;12775;46.994;15.498;2023-05-20T04:06:48;16.90;99.90
1988;DHT22;12775;46.994;15.498;2023-05-20T04:09:15;16.90;99.90
1988;DHT22;12775;46.994;15.498;2023-05-20T04:11:43;16.90;99.90
1988;DHT22;12775;46.994;15.498;2023-05-20T04:14:10;16.90;99.90
1988;DHT22;12775;46.994;15.498;2023-05-20T04:16:37;17.00;99.90
1988;DHT22;12775;46.994;15.498;2023-05-20T04:19:05;17.00;99.90
1988;DHT22;12775;46.994;15.498;2023-05-20T04:21:32;17.10;99.90
1988;DHT22;12775;46.994;15.498;2023-05-20T04:24:00;17.10;99.90
1988;DHT22;12775;46.994;15.498;2023-05-20T04:26:27;17.10;99.90
1988;DHT22;12775;46.994;15.498;2023-05-20T04:28:55;17.30;99.90
1988;DHT22;12775;46.994;15.498;2023-05-20T04:31:22;17.40;99.90
1988;DHT22;12775;46.994;15.498;2023-05-20T04:33:49;17.40;99.90
1988;DHT22;12775;46.994;15.498;2023-05-20T04:36:17;17.40;99.90
1988;DHT22;12775;46.994;15.498;2023-05-20T04:38:44;17.40;99.90
1988;DHT22;12775;46.994;15.498;2023-05-20T04:41:12;17.50;99.90
1988;DHT22;12775;46.994;15.498;2023-05-20T04:43:39;17.60;99.90
1988;DHT22;12775;46.994;15.498;2023-05-20T04:46:06;17.60;99.90
1988;DHT22;12775;46.994;15.498;2023-05-20T04:48:35;17.70;99.90
1988;DHT22;12775;46.994;15.498;2023-05-20T04:51:02;17.80;99.90
1988;DHT22;12775;46.994;15.498;2023-05-20T04:53:29;17.80;99.90
1988;DHT22;12775;46.994;15.498;2023-05-20T04:55:57;17.80;99.90
1988;DHT22;12775;46.994;15.498;2023-05-20T04:58:24;17.80;99.90
1988;DHT22;12775;46.994;15.498;2023-05-20T05:00:52;17.90;99.90
1988;DHT22;12775;46.994;15.498;2023-05-20T05:03:19;17.90;99.90
1988;DHT22;12775;46.994;15.498;2023-05-20T05:05:46;17.90;99.90
1988;DHT22;12775;46.994;15.498;2023-05-20T05:08:14;18.00;99.90
1988;DHT22;12775;46.994;15.498;2023-05-20T05:10:41;18.00;99.90
1988;DHT22;12775;46.994;15.498;2023-05-20T05:13:08;18.00;99.90
1988;DHT22;12775;46.994;15.498;2023-05-20T05:15:36;18.10;99.90
1988;DHT22;12775;46.994;15.498;2023-05-20T05:18:03;18.10;99.90
1988;DHT22;12775;46.994;15.498;2023-05-20T05:20:31;18.00;99.90
1988;DHT22;12775;46.994;15.498;2023-05-20T05:22:58;17.90;99.90
1988;DHT22;12775;46.994;15.498;2023-05-20T05:25:25;17.90;99.90
1988;DHT22;12775;46.994;15.498;2023-05-20T05:27:53;18.00;99.90
1988;DHT22;12775;46.994;15.498;2023-05-20T05:30:20;18.00;99.90
1988;DHT22;12775;46.994;15.498;2023-05-20T05:32:49;18.00;99.90
1988;DHT22;12775;46.994;15.498;2023-05-20T05:35:16;18.00;99.90
1988;DHT22;12775;46.994;15.498;2023-05-20T05:37:44;18.10;99.90
1988;DHT22;12775;46.994;15.498;2023-05-20T05:40:12;18.00;99.90
1988;DHT22;12775;46.994;15.498;2023-05-20T05:42:39;18.00;99.90
1988;DHT22;12775;46.994;15.498;2023-05-20T05:45:07;18.00;99.90
1988;DHT22;12775;46.994;15.498;2023-05-20T05:47:35;18.00;99.90
1988;DHT22;12775;46.994;15.498;2023-05-20T05:50:02;18.10;99.90
1988;DHT22;12775;46.994;15.498;2023-05-20T05:52:30;18.10;99.90
1988;DHT22;12775;46.994;15.498;2023-05-20T05:54:58;18.20;99.90
1988;DHT22;12775;46.994;15.498;2023-05-20T05:57:25;18.30;99.90
1988;DHT22;12775;46.994;15.498;2023-05-20T05:59:53;18.40;99.90
1988;DHT22;12775;46.994;15.498;2023-05-20T06:02:20;18.50;99.90
1988;DHT22;12775;46.994;15.498;2023-05-20T06:04:47;18.60;99.90
1988;DHT22;12775;46.994;15.498;2023-05-20T06:07:15;18.80;99.90
1988;DHT22;12775;46.994;15.498;2023-05-20T06:09:42;18.90;99.90
1988;DHT22;12775;46.994;15.498;2023-05-20T06:12:09;19.10;99.90
1988;DHT22;12775;46.994;15.498;2023-05-20T06:14:37;19.20;99.90
1988;DHT22;12775;46.994;15.498;2023-05-20T06:17:05;19.30;99.90
1988;DHT22;12775;46.994;15.498;2023-05-20T06:19:32;19.40;99.90
1988;DHT22;12775;46.994;15.498;2023-05-20T06:21:59;19.50;99.90
1988;DHT22;12775;46.994;15.498;2023-05-20T06:24:28;19.60;99.90
1988;DHT22;12775;46.994;15.498;2023-05-20T06:26:55;19.80;99.90
1988;DHT22;12775;46.994;15.498;2023-05-20T06:29:23;20.10;99.90
1988;DHT22;12775;46.994;15.498;2023-05-20T06:31:49;20.00;99.90
1988;DHT22;12775;46.994;15.498;2023-05-20T06:34:16;20.60;99.90
1988;DHT22;12775;46.994;15.498;2023-05-20T06:36:44;20.80;99.90
1988;DHT22;12775;46.994;15.498;2023-05-20T06:39:11;21.10;99.90
1988;DHT22;12775;46.994;15.498;2023-05-20T06:41:39;21.30;99.90
1988;DHT22;12775;46.994;15.498;2023-05-20T06:44:06;21.50;99.90
1988;DHT22;12775;46.994;15.498;2023-05-20T06:46:33;21.70;99.90
1988;DHT22;12775;46.994;15.498;2023-05-20T06:49:00;21.70;99.90
1988;DHT22;12775;46.994;15.498;2023-05-20T06:51:27;22.30;99.90
1988;DHT22;12775;46.994;15.498;2023-05-20T06:53:55;22.50;99.90
1988;DHT22;12775;46.994;15.498;2023-05-20T06:56:22;22.70;99.90
1988;DHT22;12775;46.994;15.498;2023-05-20T06:58:49;22.90;99.90
1988;DHT22;12775;46.994;15.498;2023-05-20T07:01:17;23.00;99.90
1988;DHT22;12775;46.994;15.498;2023-05-20T07:03:44;23.20;99.90
1988;DHT22;12775;46.994;15.498;2023-05-20T07:06:12;23.40;99.90
1988;DHT22;12775;46.994;15.498;2023-05-20T07:08:39;23.50;99.20
1988;DHT22;12775;46.994;15.498;2023-05-20T07:11:06;23.80;99.90
1988;DHT22;12775;46.994;15.498;2023-05-20T07:13:35;24.00;99.30
1988;DHT22;12775;46.994;15.498;2023-05-20T07:16:02;24.00;97.10
1988;DHT22;12775;46.994;15.498;2023-05-20T07:20:56;24.10;98.80
1988;DHT22;12775;46.994;15.498;2023-05-20T07:23:24;24.30;98.20
1988;DHT22;12775;46.994;15.498;2023-05-20T07:25:52;24.40;96.90
1988;DHT22;12775;46.994;15.498;2023-05-20T07:28:19;24.50;95.20
1988;DHT22;12775;46.994;15.498;2023-05-20T07:30:46;24.60;94.10
1988;DHT22;12775;46.994;15.498;2023-05-20T07:33:13;24.70;94.90
1988;DHT22;12775;46.994;15.498;2023-05-20T07:35:41;24.80;98.60
1988;DHT22;12775;46.994;15.498;2023-05-20T07:38:09;24.90;97.80
1988;DHT22;12775;46.994;15.498;2023-05-20T07:40:35;25.10;96.60
1988;DHT22;12775;46.994;15.498;2023-05-20T07:43:03;25.20;94.40
1988;DHT22;12775;46.994;15.498;2023-05-20T07:45:30;25.10;94.80
1988;DHT22;12775;46.994;15.498;2023-05-20T07:47:58;25.10;92.50
1988;DHT22;12775;46.994;15.498;2023-05-20T07:50:25;25.10;93.70
1988;DHT22;12775;46.994;15.498;2023-05-20T07:52:52;24.90;92.70
1988;DHT22;12775;46.994;15.498;2023-05-20T07:55:20;24.90;93.00
1988;DHT22;12775;46.994;15.498;2023-05-20T07:57:47;24.80;94.10
1988;DHT22;12775;46.994;15.498;2023-05-20T08:00:15;24.70;93.20
1988;DHT22;12775;46.994;15.498;2023-05-20T08:02:42;24.70;93.20
1988;DHT22;12775;46.994;15.498;2023-05-20T08:05:09;24.70;94.80
1988;DHT22;12775;46.994;15.498;2023-05-20T08:07:37;24.80;95.00
1988;DHT22;12775;46.994;15.498;2023-05-20T08:10:05;24.80;95.30
1988;DHT22;12775;46.994;15.498;2023-05-20T08:12:32;24.70;96.20
1988;DHT22;12775;46.994;15.498;2023-05-20T08:14:59;24.60;96.10
1988;DHT22;12775;46.994;15.498;2023-05-20T08:17:26;25.00;97.70
1988;DHT22;12775;46.994;15.498;2023-05-20T08:19:54;25.20;96.80
1988;DHT22;12775;46.994;15.498;2023-05-20T08:22:21;25.30;94.80
1988;DHT22;12775;46.994;15.498;2023-05-20T08:24:48;25.40;92.60
1988;DHT22;12775;46.994;15.498;2023-05-20T08:27:16;25.40;90.90
1988;DHT22;12775;46.994;15.498;2023-05-20T08:29:43;25.40;90.90
1988;DHT22;12775;46.994;15.498;2023-05-20T08:32:12;25.50;92.70
1988;DHT22;12775;46.994;15.498;2023-05-20T08:34:39;25.60;93.90
1988;DHT22;12775;46.994;15.498;2023-05-20T08:37:06;25.60;95.00
1988;DHT22;12775;46.994;15.498;2023-05-20T08:39:34;25.60;91.80
1988;DHT22;12775;46.994;15.498;2023-05-20T08:42:01;25.70;92.30
1988;DHT22;12775;46.994;15.498;2023-05-20T08:44:28;25.80;91.80
1988;DHT22;12775;46.994;15.498;2023-05-20T08:46:56;25.60;90.30
1988;DHT22;12775;46.994;15.498;2023-05-20T08:49:23;25.30;90.80
1988;DHT22;12775;46.994;15.498;2023-05-20T08:51:51;25.50;90.40
1988;DHT22;12775;46.994;15.498;2023-05-20T08:54:19;25.70;94.20
1988;DHT22;12775;46.994;15.498;2023-05-20T08:56:46;25.80;91.90
1988;DHT22;12775;46.994;15.498;2023-05-20T08:59:14;25.70;91.60
1988;DHT22;12775;46.994;15.498;2023-05-20T09:01:41;25.50;90.80
1988;DHT22;12775;46.994;15.498;2023-05-20T09:04:09;25.70;93.90
1988;DHT22;12775;46.994;15.498;2023-05-20T09:06:43;25.70;94.00
1988;DHT22;12775;46.994;15.498;2023-05-20T09:09:10;25.90;91.80
1988;DHT22;12775;46.994;15.498;2023-05-20T09:11:38;25.80;91.70
1988;DHT22;12775;46.994;15.498;2023-05-20T09:14:04;25.80;94.00
1988;DHT22;12775;46.994;15.498;2023-05-20T09:16:32;26.00;94.90
1988;DHT22;12775;46.994;15.498;2023-05-20T09:18:59;26.10;90.90
1988;DHT22;12775;46.994;15.498;2023-05-20T09:21:26;26.00;90.90
1988;DHT22;12775;46.994;15.498;2023-05-20T09:23:53;26.30;89.80
1988;DHT22;12775;46.994;15.498;2023-05-20T09:26:21;26.20;87.40
1988;DHT22;12775;46.994;15.498;2023-05-20T09:28:48;26.20;90.20
1988;DHT22;12775;46.994;15.498;2023-05-20T09:31:15;26.20;89.50
1988;DHT22;12775;46.994;15.498;2023-05-20T09:33:43;26.30;88.50
1988;DHT22;12775;46.994;15.498;2023-05-20T09:36:10;26.00;82.80
1988;DHT22;12775;46.994;15.498;2023-05-20T09:38:38;25.80;86.10
1988;DHT22;12775;46.994;15.498;2023-05-20T09:41:07;25.80;90.20
1988;DHT22;12775;46.994;15.498;2023-05-20T09:43:34;25.80;89.00
1988;DHT22;12775;46.994;15.498;2023-05-20T09:46:01;25.70;83.80
1988;DHT22;12775;46.994;15.498;2023-05-20T09:48:28;25.60;82.50
1988;DHT22;12775;46.994;15.498;2023-05-20T09:50:56;25.50;82.80
1988;DHT22;12775;46.994;15.498;2023-05-20T09:53:25;25.50;82.70
1988;DHT22;12775;46.994;15.498;2023-05-20T09:55:53;25.80;86.10
1988;DHT22;12775;46.994;15.498;2023-05-20T09:58:22;26.00;84.30
1988;DHT22;12775;46.994;15.498;2023-05-20T10:00:49;26.10;85.50
1988;DHT22;12775;46.994;15.498;2023-05-20T10:03:17;26.20;86.20
1988;DHT22;12775;46.994;15.498;2023-05-20T10:05:47;26.30;82.80
1988;DHT22;12775;46.994;15.498;2023-05-20T10:11:16;26.20;79.80
1988;DHT22;12775;46.994;15.498;2023-05-20T10:14:04;26.10;80.50
1988;DHT22;12775;46.994;15.498;2023-05-20T10:16:37;26.10;80.80
1988;DHT22;12775;46.994;15.498;2023-05-20T10:19:15;26.20;80.90
1988;DHT22;12775;46.994;15.498;2023-05-20T10:21:32;26.00;79.50
1988;DHT22;12775;46.994;15.498;2023-05-20T10:24:06;26.00;79.60
1988;DHT22;12775;46.994;15.498;2023-05-20T10:26:37;26.30;81.70
1988;DHT22;12775;46.994;15.498;2023-05-20T10:29:13;26.20;81.70
1988;DHT22;12775;46.994;15.498;2023-05-20T10:31:43;26.30;77.50
1988;DHT22;12775;46.994;15.498;2023-05-20T10:34:13;25.90;79.00
1988;DHT22;12775;46.994;15.498;2023-05-20T10:36:34;25.90;81.90
1988;DHT22;12775;46.994;15.498;2023-05-20T10:39:00;25.90;81.80
1988;DHT22;12775;46.994;15.498;2023-05-20T10:41:28;26.30;77.50
1988;DHT22;12775;46.994;15.498;2023-05-20T10:44:00;26.40;78.30
1988;DHT22;12775;46.994;15.498;2023-05-20T10:46:28;26.40;78.90
1988;DHT22;12775;46.994;15.498;2023-05-20T10:48:55;26.40;77.30
1988;DHT22;12775;46.994;15.498;2023-05-20T10:51:21;26.40;77.30
1988;DHT22;12775;46.994;15.498;2023-05-20T10:53:51;26.60;77.70
1988;DHT22;12775;46.994;15.498;2023-05-20T10:56:17;26.50;77.60
1988;DHT22;12775;46.994;15.498;2023-05-20T10:58:43;26.70;77.80
1988;DHT22;12775;46.994;15.498;2023-05-20T11:01:10;26.60;76.40
1988;DHT22;12775;46.994;15.498;2023-05-20T11:03:37;26.60;77.80
1988;DHT22;12775;46.994;15.498;2023-05-20T11:06:13;26.70;76.80
1988;DHT22;12775;46.994;15.498;2023-05-20T11:08:41;27.10;79.00
1988;DHT22;12775;46.994;15.498;2023-05-20T11:11:10;27.40;76.60
1988;DHT22;12775;46.994;15.498;2023-05-20T11:13:37;27.10;75.60
1988;DHT22;12775;46.994;15.498;2023-05-20T11:16:04;26.90;74.30
1988;DHT22;12775;46.994;15.498;2023-05-20T11:18:33;26.70;74.10
1988;DHT22;12775;46.994;15.498;2023-05-20T11:21:00;26.40;76.80
1988;DHT22;12775;46.994;15.498;2023-05-20T11:23:28;26.30;76.30
1988;DHT22;12775;46.994;15.498;2023-05-20T11:25:55;26.00;75.90
1988;DHT22;12775;46.994;15.498;2023-05-20T11:28:22;26.00;76.80
1988;DHT22;12775;46.994;15.498;2023-05-20T11:30:50;25.90;76.80
1988;DHT22;12775;46.994;15.498;2023-05-20T11:33:16;26.00;78.30
1988;DHT22;12775;46.994;15.498;2023-05-20T11:35:45;25.60;78.90
1988;DHT22;12775;46.994;15.498;2023-05-20T11:38:12;25.60;77.10
1988;DHT22;12775;46.994;15.498;2023-05-20T11:40:45;25.50;79.10
1988;DHT22;12775;46.994;15.498;2023-05-20T11:43:12;25.80;80.40
1988;DHT22;12775;46.994;15.498;2023-05-20T11:45:39;26.10;77.60
1988;DHT22;12775;46.994;15.498;2023-05-20T11:48:06;26.00;75.00
1988;DHT22;12775;46.994;15.498;2023-05-20T11:50:35;26.10;76.30
1988;DHT22;12775;46.994;15.498;2023-05-20T11:53:02;26.10;76.00
1988;DHT22;12775;46.994;15.498;2023-05-20T11:55:31;25.90;78.40
1988;DHT22;12775;46.994;15.498;2023-05-20T11:57:57;25.90;78.40
1988;DHT22;12775;46.994;15.498;2023-05-20T12:00:24;26.00;76.50
1988;DHT22;12775;46.994;15.498;2023-05-20T12:02:52;25.90;75.80
1988;DHT22;12775;46.994;15.498;2023-05-20T12:05:19;25.90;76.90
1988;DHT22;12775;46.994;15.498;2023-05-20T12:07:46;25.90;77.20
1988;DHT22;12775;46.994;15.498;2023-05-20T12:10:14;25.90;76.10
1988;DHT22;12775;46.994;15.498;2023-05-20T12:12:42;25.80;76.50
1988;DHT22;12775;46.994;15.498;2023-05-20T12:15:10;25.70;77.60
1988;DHT22;12775;46.994;15.498;2023-05-20T12:17:50;25.70;77.60
1988;DHT22;12775;46.994;15.498;2023-05-20T12:20:19;25.60;78.20
1988;DHT22;12775;46.994;15.498;2023-05-20T12:22:45;25.80;80.10
1988;DHT22;12775;46.994;15.498;2023-05-20T12:25:13;25.70;78.90
1988;DHT22;12775;46.994;15.498;2023-05-20T12:27:40;25.60;79.20
1988;DHT22;12775;46.994;15.498;2023-05-20T12:30:08;25.50;77.90
1988;DHT22;12775;46.994;15.498;2023-05-20T12:32:36;25.50;77.80
1988;DHT22;12775;46.994;15.498;2023-05-20T12:35:04;25.40;78.20
1988;DHT22;12775;46.994;15.498;2023-05-20T12:37:31;25.40;78.20
1988;DHT22;12775;46.994;15.498;2023-05-20T12:39:58;25.20;77.90
1988;DHT22;12775;46.994;15.498;2023-05-20T12:42:26;25.50;78.20
1988;DHT22;12775;46.994;15.498;2023-05-20T12:44:53;25.60;78.90
1988;DHT22;12775;46.994;15.498;2023-05-20T12:47:20;25.70;79.00
1988;DHT22;12775;46.994;15.498;2023-05-20T12:49:48;25.50;77.50
1988;DHT22;12775;46.994;15.498;2023-05-20T12:52:15;25.50;79.80
1988;DHT22;12775;46.994;15.498;2023-05-20T12:54:42;25.60;79.30
1988;DHT22;12775;46.994;15.498;2023-05-20T12:57:10;25.70;79.00
1988;DHT22;12775;46.994;15.498;2023-05-20T12:59:37;25.80;80.90
1988;DHT22;12775;46.994;15.498;2023-05-20T13:02:04;25.70;79.50
1988;DHT22;12775;46.994;15.498;2023-05-20T13:04:32;25.70;79.10
1988;DHT22;12775;46.994;15.498;2023-05-20T13:06:59;25.80;81.30
1988;DHT22;12775;46.994;15.498;2023-05-20T13:09:26;25.90;78.90
1988;DHT22;12775;46.994;15.498;2023-05-20T13:11:54;25.80;77.20
1988;DHT22;12775;46.994;15.498;2023-05-20T13:14:21;25.90;78.10
1988;DHT22;12775;46.994;15.498;2023-05-20T13:16:49;25.90;79.00
1988;DHT22;12775;46.994;15.498;2023-05-20T13:19:16;25.90;78.90
1988;DHT22;12775;46.994;15.498;2023-05-20T13:21:43;25.90;79.30
1988;DHT22;12775;46.994;15.498;2023-05-20T13:24:11;26.20;81.70
1988;DHT22;12775;46.994;15.498;2023-05-20T13:26:39;26.20;81.10
1988;DHT22;12775;46.994;15.498;2023-05-20T13:29:06;26.20;80.00
1988;DHT22;12775;46.994;15.498;2023-05-20T13:31:34;26.40;78.20
1988;DHT22;12775;46.994;15.498;2023-05-20T13:34:01;26.40;79.10
1988;DHT22;12775;46.994;15.498;2023-05-20T13:36:28;26.30;78.60
1988;DHT22;12775;46.994;15.498;2023-05-20T13:38:55;26.00;79.00
1988;DHT22;12775;46.994;15.498;2023-05-20T13:41:23;25.80;79.20
1988;DHT22;12775;46.994;15.498;2023-05-20T13:43:49;25.70;79.20
1988;DHT22;12775;46.994;15.498;2023-05-20T13:46:16;25.80;78.00
1988;DHT22;12775;46.994;15.498;2023-05-20T13:48:42;25.60;77.30
1988;DHT22;12775;46.994;15.498;2023-05-20T13:51:10;25.30;78.20
1988;DHT22;12775;46.994;15.498;2023-05-20T13:53:37;25.20;80.10
1988;DHT22;12775;46.994;15.498;2023-05-20T13:56:04;25.20;80.10
1988;DHT22;12775;46.994;15.498;2023-05-20T13:58:30;25.30;81.80
1988;DHT22;12775;46.994;15.498;2023-05-20T14:00:58;25.60;78.60
1988;DHT22;12775;46.994;15.498;2023-05-20T14:03:24;25.60;78.60
1988;DHT22;12775;46.994;15.498;2023-05-20T14:05:52;26.10;77.50
1988;DHT22;12775;46.994;15.498;2023-05-20T14:08:19;26.30;79.50
1988;DHT22;12775;46.994;15.498;2023-05-20T14:10:46;26.20;76.70
1988;DHT22;12775;46.994;15.498;2023-05-20T14:13:14;26.00;75.50
1988;DHT22;12775;46.994;15.498;2023-05-20T14:15:41;26.10;77.00
1988;DHT22;12775;46.994;15.498;2023-05-20T14:18:08;26.10;76.60
1988;DHT22;12775;46.994;15.498;2023-05-20T14:20:38;26.30;76.00
1988;DHT22;12775;46.994;15.498;2023-05-20T14:23:05;26.40;76.00
1988;DHT22;12775;46.994;15.498;2023-05-20T14:25:33;26.60;78.20
1988;DHT22;12775;46.994;15.498;2023-05-20T14:28:00;26.60;74.20
1988;DHT22;12775;46.994;15.498;2023-05-20T14:30:28;26.70;73.60
1988;DHT22;12775;46.994;15.498;2023-05-20T14:32:55;26.60;73.50
1988;DHT22;12775;46.994;15.498;2023-05-20T14:35:22;26.60;75.50
1988;DHT22;12775;46.994;15.498;2023-05-20T14:37:50;26.80;76.40
1988;DHT22;12775;46.994;15.498;2023-05-20T14:40:19;26.90;76.20
1988;DHT22;12775;46.994;15.498;2023-05-20T14:42:46;26.90;78.50
1988;DHT22;12775;46.994;15.498;2023-05-20T14:45:15;27.00;75.50
1988;DHT22;12775;46.994;15.498;2023-05-20T14:47:42;26.90;76.90
1988;DHT22;12775;46.994;15.498;2023-05-20T14:50:10;26.90;75.30
1988;DHT22;12775;46.994;15.498;2023-05-20T14:52:37;26.70;75.30
1988;DHT22;12775;46.994;15.498;2023-05-20T14:55:04;26.50;76.50
1988;DHT22;12775;46.994;15.498;2023-05-20T14:57:32;26.30;76.80
1988;DHT22;12775;46.994;15.498;2023-05-20T15:00:00;26.30;76.90
1988;DHT22;12775;46.994;15.498;2023-05-20T15:02:28;26.20;75.90
1988;DHT22;12775;46.994;15.498;2023-05-20T15:04:55;25.90;77.50
1988;DHT22;12775;46.994;15.498;2023-05-20T15:07:23;25.90;75.40
1988;DHT22;12775;46.994;15.498;2023-05-20T15:09:50;25.80;77.40
1988;DHT22;12775;46.994;15.498;2023-05-20T15:12:18;25.80;77.00
1988;DHT22;12775;46.994;15.498;2023-05-20T15:14:45;25.70;77.90
1988;DHT22;12775;46.994;15.498;2023-05-20T15:17:12;25.80;77.90
1988;DHT22;12775;46.994;15.498;2023-05-20T15:19:41;25.60;77.10
1988;DHT22;12775;46.994;15.498;2023-05-20T15:22:08;25.50;77.00
1988;DHT22;12775;46.994;15.498;2023-05-20T15:24:34;25.60;77.70
1988;DHT22;12775;46.994;15.498;2023-05-20T15:27:01;25.50;78.50
1988;DHT22;12775;46.994;15.498;2023-05-20T15:29:28;25.40;78.50
1988;DHT22;12775;46.994;15.498;2023-05-20T15:31:56;25.30;78.50
1988;DHT22;12775;46.994;15.498;2023-05-20T15:34:23;25.40;78.90
1988;DHT22;12775;46.994;15.498;2023-05-20T15:36:50;25.50;80.00